sensor_id;sensor_type;location;lat;lon;timestamp;P1;durP1;ratioP1;P2;durP2;ratioP2
74707;SDS011;63360;50.104;8.074;2023-03-01T00:01:54;15.07;;;5.63;;
74707;SDS011;63360;50.104;8.074;2023-03-01T00:04:21;15.70;;;6.05;;
74707;SDS011;63360;50.104;8.074;2023-03-01T00:06:47;14.32;;;5.88;;
74707;SDS011;63360;50.104;8.074;2023-03-01T00:09:14;14.40;;;5.47;;
74707;SDS011;63360;50.104;8.074;2023-03-01T00:11:41;15.13;;;5.18;;
74707;SDS011;63360;50.104;8.074;2023-03-01T00:14:07;14.18;;;5.57;;
74707;SDS011;63360;50.104;8.074;2023-03-01T00:16:35;13.55;;;5.53;;
74707;SDS011;63360;50.104;8.074;2023-03-01T00:19:08;14.55;;;5.68;;
74707;SDS011;63360;50.104;8.074;2023-03-01T00:21:38;15.50;;;5.97;;
74707;SDS011;63360;50.104;8.074;2023-03-01T00:24:04;15.07;;;5.75;;
74707;SDS011;63360;50.104;8.074;2023-03-01T00:26:31;15.98;;;6.53;;
74707;SDS011;63360;50.104;8.074;2023-03-01T00:28:58;14.93;;;5.93;;
74707;SDS011;63360;50.104;8.074;2023-03-01T00:31:26;14.98;;;5.72;;
74707;SDS011;63360;50.104;8.074;2023-03-01T00:33:56;13.73;;;5.20;;
74707;SDS011;63360;50.104;8.074;2023-03-01T00:36:25;14.95;;;5.95;;
74707;SDS011;63360;50.104;8.074;2023-03-01T00:38:54;13.75;;;5.57;;
74707;SDS011;63360;50.104;8.074;2023-03-01T00:41:21;15.02;;;5.55;;
74707;SDS011;63360;50.104;8.074;2023-03-01T00:43:52;13.10;;;5.25;;
74707;SDS011;63360;50.104;8.074;2023-03-01T00:46:20;13.30;;;5.70;;
74707;SDS011;63360;50.104;8.074;2023-03-01T00:48:49;13.93;;;5.70;;
74707;SDS011;63360;50.104;8.074;2023-03-01T00:51:16;14.30;;;5.38;;
74707;SDS011;63360;50.104;8.074;2023-03-01T00:53:45;13.05;;;5.40;;
74707;SDS011;63360;50.104;8.074;2023-03-01T00:56:13;12.75;;;5.57;;
74707;SDS011;63360;50.104;8.074;2023-03-01T00:58:41;13.03;;;5.57;;
74707;SDS011;63360;50.104;8.074;2023-03-01T01:01:12;13.52;;;5.45;;
74707;SDS011;63360;50.104;8.074;2023-03-01T01:03:44;12.52;;;4.97;;
74707;SDS011;63360;50.104;8.074;2023-03-01T01:06:31;15.35;;;5.22;;
74707;SDS011;63360;50.104;8.074;2023-03-01T01:09:00;15.93;;;5.03;;
74707;SDS011;63360;50.104;8.074;2023-03-01T01:11:28;14.57;;;5.53;;
74707;SDS011;63360;50.104;8.074;2023-03-01T01:13:55;12.65;;;5.47;;
74707;SDS011;63360;50.104;8.074;2023-03-01T01:16:23;16.52;;;5.63;;
74707;SDS011;63360;50.104;8.074;2023-03-01T01:18:51;14.18;;;5.43;;
74707;SDS011;63360;50.104;8.074;2023-03-01T01:21:20;14.18;;;6.15;;
74707;SDS011;63360;50.104;8.074;2023-03-01T01:23:48;15.07;;;5.50;;
74707;SDS011;63360;50.104;8.074;2023-03-01T01:26:16;14.98;;;5.65;;
74707;SDS011;63360;50.104;8.074;2023-03-01T01:28:54;15.07;;;6.10;;
74707;SDS011;63360;50.104;8.074;2023-03-01T01:31:22;16.77;;;6.05;;
74707;SDS011;63360;50.104;8.074;2023-03-01T01:33:50;14.23;;;5.53;;
74707;SDS011;63360;50.104;8.074;2023-03-01T01:36:18;13.67;;;5.60;;
74707;SDS011;63360;50.104;8.074;2023-03-01T01:38:44;16.08;;;5.95;;
74707;SDS011;63360;50.104;8.074;2023-03-01T01:41:11;18.30;;;6.30;;
74707;SDS011;63360;50.104;8.074;2023-03-01T01:43:40;14.65;;;5.78;;
74707;SDS011;63360;50.104;8.074;2023-03-01T01:48:59;15.00;;;5.60;;
74707;SDS011;63360;50.104;8.074;2023-03-01T01:51:29;14.27;;;5.40;;
74707;SDS011;63360;50.104;8.074;2023-03-01T01:54:14;15.18;;;6.43;;
74707;SDS011;63360;50.104;8.074;2023-03-01T01:56:48;15.25;;;5.93;;
74707;SDS011;63360;50.104;8.074;2023-03-01T01:59:21;12.32;;;5.20;;
74707;SDS011;63360;50.104;8.074;2023-03-01T02:01:51;16.93;;;5.73;;
74707;SDS011;63360;50.104;8.074;2023-03-01T02:04:18;15.68;;;5.72;;
74707;SDS011;63360;50.104;8.074;2023-03-01T02:06:51;15.80;;;5.75;;
74707;SDS011;63360;50.104;8.074;2023-03-01T02:09:23;16.42;;;6.25;;
74707;SDS011;63360;50.104;8.074;2023-03-01T02:11:50;14.73;;;5.95;;
74707;SDS011;63360;50.104;8.074;2023-03-01T02:14:17;14.80;;;5.57;;
74707;SDS011;63360;50.104;8.074;2023-03-01T02:16:44;13.73;;;5.43;;
74707;SDS011;63360;50.104;8.074;2023-03-01T02:19:13;14.80;;;5.82;;
74707;SDS011;63360;50.104;8.074;2023-03-01T02:27:38;17.87;;;5.90;;
74707;SDS011;63360;50.104;8.074;2023-03-01T02:30:15;14.45;;;6.05;;
74707;SDS011;63360;50.104;8.074;2023-03-01T02:32:42;16.00;;;6.25;;
74707;SDS011;63360;50.104;8.074;2023-03-01T02:35:12;16.15;;;6.10;;
74707;SDS011;63360;50.104;8.074;2023-03-01T02:37:40;17.27;;;6.00;;
74707;SDS011;63360;50.104;8.074;2023-03-01T02:40:09;16.03;;;6.10;;
74707;SDS011;63360;50.104;8.074;2023-03-01T02:42:49;16.75;;;5.93;;
74707;SDS011;63360;50.104;8.074;2023-03-01T02:45:19;15.77;;;5.95;;
74707;SDS011;63360;50.104;8.074;2023-03-01T02:47:46;18.65;;;6.53;;
74707;SDS011;63360;50.104;8.074;2023-03-01T02:50:15;18.83;;;7.20;;
74707;SDS011;63360;50.104;8.074;2023-03-01T02:52:55;16.47;;;6.00;;
74707;SDS011;63360;50.104;8.074;2023-03-01T02:55:34;15.35;;;6.30;;
74707;SDS011;63360;50.104;8.074;2023-03-01T02:58:01;18.63;;;6.53;;
74707;SDS011;63360;50.104;8.074;2023-03-01T03:00:30;17.85;;;6.05;;
74707;SDS011;63360;50.104;8.074;2023-03-01T03:03:01;18.70;;;6.75;;
74707;SDS011;63360;50.104;8.074;2023-03-01T03:05:29;17.10;;;6.43;;
74707;SDS011;63360;50.104;8.074;2023-03-01T03:07:57;16.77;;;6.63;;
74707;SDS011;63360;50.104;8.074;2023-03-01T03:10:27;17.83;;;7.38;;
74707;SDS011;63360;50.104;8.074;2023-03-01T03:13:04;19.08;;;7.03;;
74707;SDS011;63360;50.104;8.074;2023-03-01T03:15:36;17.42;;;7.13;;
74707;SDS011;63360;50.104;8.074;2023-03-01T03:18:05;16.50;;;7.00;;
74707;SDS011;63360;50.104;8.074;2023-03-01T03:20:34;16.35;;;6.45;;
74707;SDS011;63360;50.104;8.074;2023-03-01T03:23:00;17.42;;;7.05;;
74707;SDS011;63360;50.104;8.074;2023-03-01T03:25:27;17.55;;;7.20;;
74707;SDS011;63360;50.104;8.074;2023-03-01T03:27:55;18.45;;;7.00;;
74707;SDS011;63360;50.104;8.074;2023-03-01T03:30:26;17.03;;;6.53;;
74707;SDS011;63360;50.104;8.074;2023-03-01T03:32:55;15.65;;;6.20;;
74707;SDS011;63360;50.104;8.074;2023-03-01T03:35:27;15.15;;;6.40;;
74707;SDS011;63360;50.104;8.074;2023-03-01T03:37:59;18.13;;;7.00;;
74707;SDS011;63360;50.104;8.074;2023-03-01T03:43:07;18.47;;;6.90;;
74707;SDS011;63360;50.104;8.074;2023-03-01T03:45:36;20.52;;;7.43;;
74707;SDS011;63360;50.104;8.074;2023-03-01T03:48:03;19.88;;;7.03;;
74707;SDS011;63360;50.104;8.074;2023-03-01T03:50:32;20.10;;;7.30;;
74707;SDS011;63360;50.104;8.074;2023-03-01T03:53:03;18.92;;;7.75;;
74707;SDS011;63360;50.104;8.074;2023-03-01T03:55:31;18.20;;;7.43;;
74707;SDS011;63360;50.104;8.074;2023-03-01T03:58:00;20.48;;;7.40;;
74707;SDS011;63360;50.104;8.074;2023-03-01T04:00:33;22.92;;;8.20;;
74707;SDS011;63360;50.104;8.074;2023-03-01T04:03:01;18.70;;;7.20;;
74707;SDS011;63360;50.104;8.074;2023-03-01T04:05:28;18.45;;;7.03;;
74707;SDS011;63360;50.104;8.074;2023-03-01T04:07:55;18.80;;;7.27;;
74707;SDS011;63360;50.104;8.074;2023-03-01T04:10:33;19.35;;;7.68;;
74707;SDS011;63360;50.104;8.074;2023-03-01T04:13:04;21.02;;;7.10;;
74707;SDS011;63360;50.104;8.074;2023-03-01T04:15:32;17.55;;;7.30;;
74707;SDS011;63360;50.104;8.074;2023-03-01T04:17:59;17.83;;;6.93;;
74707;SDS011;63360;50.104;8.074;2023-03-01T04:20:27;18.43;;;7.20;;
74707;SDS011;63360;50.104;8.074;2023-03-01T04:23:03;19.38;;;6.88;;
74707;SDS011;63360;50.104;8.074;2023-03-01T04:25:40;19.40;;;7.28;;
74707;SDS011;63360;50.104;8.074;2023-03-01T04:28:09;16.98;;;7.15;;
74707;SDS011;63360;50.104;8.074;2023-03-01T04:30:36;18.27;;;7.32;;
74707;SDS011;63360;50.104;8.074;2023-03-01T04:33:07;20.20;;;6.80;;
74707;SDS011;63360;50.104;8.074;2023-03-01T04:35:35;16.63;;;6.93;;
74707;SDS011;63360;50.104;8.074;2023-03-01T04:38:03;17.55;;;7.13;;
74707;SDS011;63360;50.104;8.074;2023-03-01T04:40:30;17.05;;;6.68;;
74707;SDS011;63360;50.104;8.074;2023-03-01T04:42:57;19.42;;;7.00;;
74707;SDS011;63360;50.104;8.074;2023-03-01T04:45:24;20.23;;;7.43;;
74707;SDS011;63360;50.104;8.074;2023-03-01T04:47:50;19.88;;;7.65;;
74707;SDS011;63360;50.104;8.074;2023-03-01T04:50:20;19.83;;;7.53;;
74707;SDS011;63360;50.104;8.074;2023-03-01T04:52:47;16.60;;;6.65;;
74707;SDS011;63360;50.104;8.074;2023-03-01T04:55:14;18.42;;;7.60;;
74707;SDS011;63360;50.104;8.074;2023-03-01T04:57:40;18.73;;;7.07;;
74707;SDS011;63360;50.104;8.074;2023-03-01T05:00:08;21.63;;;7.55;;
74707;SDS011;63360;50.104;8.074;2023-03-01T05:02:54;18.55;;;7.90;;
74707;SDS011;63360;50.104;8.074;2023-03-01T05:05:26;17.92;;;7.28;;
74707;SDS011;63360;50.104;8.074;2023-03-01T05:07:54;18.90;;;7.22;;
74707;SDS011;63360;50.104;8.074;2023-03-01T05:10:22;18.67;;;7.40;;
74707;SDS011;63360;50.104;8.074;2023-03-01T05:12:49;18.30;;;6.70;;
74707;SDS011;63360;50.104;8.074;2023-03-01T05:15:15;18.15;;;6.90;;
74707;SDS011;63360;50.104;8.074;2023-03-01T05:17:42;20.48;;;7.80;;
74707;SDS011;63360;50.104;8.074;2023-03-01T05:20:08;18.63;;;7.38;;
74707;SDS011;63360;50.104;8.074;2023-03-01T05:22:36;19.27;;;7.30;;
74707;SDS011;63360;50.104;8.074;2023-03-01T05:25:03;20.10;;;7.65;;
74707;SDS011;63360;50.104;8.074;2023-03-01T05:27:30;22.20;;;7.93;;
74707;SDS011;63360;50.104;8.074;2023-03-01T05:29:57;18.88;;;7.13;;
74707;SDS011;63360;50.104;8.074;2023-03-01T05:32:23;20.83;;;7.57;;
74707;SDS011;63360;50.104;8.074;2023-03-01T05:34:50;22.87;;;8.00;;
74707;SDS011;63360;50.104;8.074;2023-03-01T05:37:18;21.88;;;7.85;;
74707;SDS011;63360;50.104;8.074;2023-03-01T05:39:45;22.88;;;8.25;;
74707;SDS011;63360;50.104;8.074;2023-03-01T05:42:11;18.95;;;7.30;;
74707;SDS011;63360;50.104;8.074;2023-03-01T05:44:38;21.90;;;8.18;;
74707;SDS011;63360;50.104;8.074;2023-03-01T05:47:04;21.20;;;7.90;;
74707;SDS011;63360;50.104;8.074;2023-03-01T05:49:31;21.98;;;7.85;;
74707;SDS011;63360;50.104;8.074;2023-03-01T05:51:58;21.00;;;7.85;;
74707;SDS011;63360;50.104;8.074;2023-03-01T05:54:24;23.05;;;7.78;;
74707;SDS011;63360;50.104;8.074;2023-03-01T05:56:50;23.00;;;8.45;;
74707;SDS011;63360;50.104;8.074;2023-03-01T05:59:17;21.53;;;7.80;;
74707;SDS011;63360;50.104;8.074;2023-03-01T06:01:43;20.67;;;7.75;;
74707;SDS011;63360;50.104;8.074;2023-03-01T06:04:10;21.83;;;8.40;;
74707;SDS011;63360;50.104;8.074;2023-03-01T06:06:36;22.80;;;8.25;;
74707;SDS011;63360;50.104;8.074;2023-03-01T06:09:04;19.70;;;7.90;;
74707;SDS011;63360;50.104;8.074;2023-03-01T06:11:33;25.27;;;8.67;;
74707;SDS011;63360;50.104;8.074;2023-03-01T06:14:01;23.05;;;8.45;;
74707;SDS011;63360;50.104;8.074;2023-03-01T06:16:27;24.90;;;9.13;;
74707;SDS011;63360;50.104;8.074;2023-03-01T06:18:54;20.95;;;8.43;;
74707;SDS011;63360;50.104;8.074;2023-03-01T06:21:21;21.08;;;8.45;;
74707;SDS011;63360;50.104;8.074;2023-03-01T06:23:47;22.87;;;8.50;;
74707;SDS011;63360;50.104;8.074;2023-03-01T06:26:13;23.35;;;9.00;;
74707;SDS011;63360;50.104;8.074;2023-03-01T06:28:40;24.40;;;8.20;;
74707;SDS011;63360;50.104;8.074;2023-03-01T06:31:06;22.60;;;8.30;;
74707;SDS011;63360;50.104;8.074;2023-03-01T06:33:35;23.77;;;8.20;;
74707;SDS011;63360;50.104;8.074;2023-03-01T06:36:02;21.03;;;7.93;;
74707;SDS011;63360;50.104;8.074;2023-03-01T06:38:28;19.60;;;7.57;;
74707;SDS011;63360;50.104;8.074;2023-03-01T06:40:55;21.95;;;8.23;;
74707;SDS011;63360;50.104;8.074;2023-03-01T06:43:22;20.80;;;7.60;;
74707;SDS011;63360;50.104;8.074;2023-03-01T06:45:49;20.05;;;7.32;;
74707;SDS011;63360;50.104;8.074;2023-03-01T06:48:16;21.80;;;7.73;;
74707;SDS011;63360;50.104;8.074;2023-03-01T06:50:43;22.17;;;7.80;;
74707;SDS011;63360;50.104;8.074;2023-03-01T06:53:09;21.75;;;7.82;;
74707;SDS011;63360;50.104;8.074;2023-03-01T06:55:36;20.15;;;7.47;;
74707;SDS011;63360;50.104;8.074;2023-03-01T06:58:02;22.58;;;8.02;;
74707;SDS011;63360;50.104;8.074;2023-03-01T07:00:29;23.40;;;8.00;;
74707;SDS011;63360;50.104;8.074;2023-03-01T07:02:58;20.17;;;7.47;;
74707;SDS011;63360;50.104;8.074;2023-03-01T07:05:25;21.75;;;8.32;;
74707;SDS011;63360;50.104;8.074;2023-03-01T07:07:53;20.92;;;8.13;;
74707;SDS011;63360;50.104;8.074;2023-03-01T07:10:21;22.63;;;8.65;;
74707;SDS011;63360;50.104;8.074;2023-03-01T07:12:47;20.60;;;7.87;;
74707;SDS011;63360;50.104;8.074;2023-03-01T07:15:14;21.10;;;8.15;;
74707;SDS011;63360;50.104;8.074;2023-03-01T07:17:41;22.33;;;7.97;;
74707;SDS011;63360;50.104;8.074;2023-03-01T07:20:07;17.63;;;7.43;;
74707;SDS011;63360;50.104;8.074;2023-03-01T07:22:35;18.60;;;7.28;;
74707;SDS011;63360;50.104;8.074;2023-03-01T07:25:01;20.87;;;7.83;;
74707;SDS011;63360;50.104;8.074;2023-03-01T07:27:27;22.92;;;8.05;;
74707;SDS011;63360;50.104;8.074;2023-03-01T07:29:54;20.98;;;8.15;;
74707;SDS011;63360;50.104;8.074;2023-03-01T07:32:20;18.65;;;7.57;;
74707;SDS011;63360;50.104;8.074;2023-03-01T07:34:47;20.70;;;7.70;;
74707;SDS011;63360;50.104;8.074;2023-03-01T07:37:13;21.87;;;8.17;;
74707;SDS011;63360;50.104;8.074;2023-03-01T07:39:40;18.45;;;8.25;;
74707;SDS011;63360;50.104;8.074;2023-03-01T07:42:06;20.85;;;7.93;;
74707;SDS011;63360;50.104;8.074;2023-03-01T07:44:33;21.48;;;7.80;;
74707;SDS011;63360;50.104;8.074;2023-03-01T07:47:00;19.80;;;8.18;;
74707;SDS011;63360;50.104;8.074;2023-03-01T07:49:26;20.03;;;8.33;;
74707;SDS011;63360;50.104;8.074;2023-03-01T07:51:53;20.08;;;8.13;;
74707;SDS011;63360;50.104;8.074;2023-03-01T07:54:19;20.60;;;7.60;;
74707;SDS011;63360;50.104;8.074;2023-03-01T07:56:46;19.25;;;7.75;;
74707;SDS011;63360;50.104;8.074;2023-03-01T07:59:12;19.35;;;7.85;;
74707;SDS011;63360;50.104;8.074;2023-03-01T08:01:39;18.90;;;7.47;;
74707;SDS011;63360;50.104;8.074;2023-03-01T08:04:06;20.92;;;7.90;;
74707;SDS011;63360;50.104;8.074;2023-03-01T08:06:34;20.83;;;7.82;;
74707;SDS011;63360;50.104;8.074;2023-03-01T08:09:01;19.02;;;6.93;;
74707;SDS011;63360;50.104;8.074;2023-03-01T08:11:28;18.60;;;7.53;;
74707;SDS011;63360;50.104;8.074;2023-03-01T08:13:55;18.90;;;8.17;;
74707;SDS011;63360;50.104;8.074;2023-03-01T08:16:21;20.05;;;7.50;;
74707;SDS011;63360;50.104;8.074;2023-03-01T08:18:48;17.52;;;6.78;;
74707;SDS011;63360;50.104;8.074;2023-03-01T08:21:15;18.77;;;7.25;;
74707;SDS011;63360;50.104;8.074;2023-03-01T08:23:42;17.10;;;6.57;;
74707;SDS011;63360;50.104;8.074;2023-03-01T08:26:27;16.97;;;6.93;;
74707;SDS011;63360;50.104;8.074;2023-03-01T08:28:54;20.58;;;8.25;;
74707;SDS011;63360;50.104;8.074;2023-03-01T08:33:48;17.05;;;7.50;;
74707;SDS011;63360;50.104;8.074;2023-03-01T08:36:23;17.65;;;7.15;;
74707;SDS011;63360;50.104;8.074;2023-03-01T08:38:54;16.70;;;7.67;;
74707;SDS011;63360;50.104;8.074;2023-03-01T08:41:21;19.20;;;7.30;;
74707;SDS011;63360;50.104;8.074;2023-03-01T08:43:48;18.80;;;8.02;;
74707;SDS011;63360;50.104;8.074;2023-03-01T08:46:14;16.23;;;7.57;;
74707;SDS011;63360;50.104;8.074;2023-03-01T08:48:41;18.63;;;7.90;;
74707;SDS011;63360;50.104;8.074;2023-03-01T08:51:10;19.23;;;7.70;;
74707;SDS011;63360;50.104;8.074;2023-03-01T08:53:41;19.02;;;8.13;;
74707;SDS011;63360;50.104;8.074;2023-03-01T08:56:08;17.83;;;7.75;;
74707;SDS011;63360;50.104;8.074;2023-03-01T08:58:35;17.38;;;7.80;;
74707;SDS011;63360;50.104;8.074;2023-03-01T09:01:13;17.50;;;7.82;;
74707;SDS011;63360;50.104;8.074;2023-03-01T09:03:41;19.10;;;8.07;;
74707;SDS011;63360;50.104;8.074;2023-03-01T09:06:09;17.15;;;8.02;;
74707;SDS011;63360;50.104;8.074;2023-03-01T09:08:37;17.05;;;8.05;;
74707;SDS011;63360;50.104;8.074;2023-03-01T09:11:06;18.98;;;8.18;;
74707;SDS011;63360;50.104;8.074;2023-03-01T09:13:33;19.75;;;7.70;;
74707;SDS011;63360;50.104;8.074;2023-03-01T09:16:01;21.00;;;8.37;;
74707;SDS011;63360;50.104;8.074;2023-03-01T09:18:29;20.05;;;8.43;;
74707;SDS011;63360;50.104;8.074;2023-03-01T09:21:09;21.00;;;8.57;;
74707;SDS011;63360;50.104;8.074;2023-03-01T09:23:42;20.48;;;8.07;;
74707;SDS011;63360;50.104;8.074;2023-03-01T09:26:20;19.92;;;9.13;;
74707;SDS011;63360;50.104;8.074;2023-03-01T09:28:49;20.17;;;8.47;;
74707;SDS011;63360;50.104;8.074;2023-03-01T09:31:17;18.02;;;7.72;;
74707;SDS011;63360;50.104;8.074;2023-03-01T09:33:48;19.27;;;8.13;;
74707;SDS011;63360;50.104;8.074;2023-03-01T09:36:17;19.88;;;7.97;;
74707;SDS011;63360;50.104;8.074;2023-03-01T09:38:45;17.67;;;8.25;;
74707;SDS011;63360;50.104;8.074;2023-03-01T09:43:45;16.65;;;8.02;;
74707;SDS011;63360;50.104;8.074;2023-03-01T09:46:22;18.17;;;7.80;;
74707;SDS011;63360;50.104;8.074;2023-03-01T09:48:57;17.85;;;7.90;;
74707;SDS011;63360;50.104;8.074;2023-03-01T09:51:31;19.23;;;8.40;;
74707;SDS011;63360;50.104;8.074;2023-03-01T09:54:03;18.07;;;7.67;;
74707;SDS011;63360;50.104;8.074;2023-03-01T10:07:48;21.57;;;7.90;;
74707;SDS011;63360;50.104;8.074;2023-03-01T10:10:31;21.23;;;8.25;;
74707;SDS011;63360;50.104;8.074;2023-03-01T10:13:10;20.15;;;7.65;;
74707;SDS011;63360;50.104;8.074;2023-03-01T10:15:44;19.58;;;8.25;;
74707;SDS011;63360;50.104;8.074;2023-03-01T10:18:16;17.60;;;8.13;;
74707;SDS011;63360;50.104;8.074;2023-03-01T10:21:00;17.93;;;7.43;;
74707;SDS011;63360;50.104;8.074;2023-03-01T10:23:30;17.73;;;7.50;;
74707;SDS011;63360;50.104;8.074;2023-03-01T10:34:28;17.57;;;7.60;;
74707;SDS011;63360;50.104;8.074;2023-03-01T10:36:57;19.45;;;8.07;;
74707;SDS011;63360;50.104;8.074;2023-03-01T10:39:27;17.35;;;6.90;;
74707;SDS011;63360;50.104;8.074;2023-03-01T10:41:55;19.98;;;7.95;;
74707;SDS011;63360;50.104;8.074;2023-03-01T10:44:45;19.67;;;8.13;;
74707;SDS011;63360;50.104;8.074;2023-03-01T10:47:14;17.70;;;7.83;;
74707;SDS011;63360;50.104;8.074;2023-03-01T10:49:56;18.27;;;8.15;;
74707;SDS011;63360;50.104;8.074;2023-03-01T10:52:29;21.45;;;8.30;;
74707;SDS011;63360;50.104;8.074;2023-03-01T10:57:42;19.52;;;7.90;;
74707;SDS011;63360;50.104;8.074;2023-03-01T11:00:19;19.03;;;8.13;;
74707;SDS011;63360;50.104;8.074;2023-03-01T11:05:25;18.92;;;7.90;;
74707;SDS011;63360;50.104;8.074;2023-03-01T11:07:55;18.75;;;8.20;;
74707;SDS011;63360;50.104;8.074;2023-03-01T11:10:24;20.67;;;7.80;;
74707;SDS011;63360;50.104;8.074;2023-03-01T11:12:53;16.87;;;8.00;;
74707;SDS011;63360;50.104;8.074;2023-03-01T11:15:21;18.88;;;8.20;;
74707;SDS011;63360;50.104;8.074;2023-03-01T11:17:50;19.92;;;7.90;;
74707;SDS011;63360;50.104;8.074;2023-03-01T11:22:56;18.60;;;7.60;;
74707;SDS011;63360;50.104;8.074;2023-03-01T11:25:32;19.07;;;8.10;;
74707;SDS011;63360;50.104;8.074;2023-03-01T11:28:02;18.02;;;7.68;;
74707;SDS011;63360;50.104;8.074;2023-03-01T11:30:35;17.52;;;7.35;;
74707;SDS011;63360;50.104;8.074;2023-03-01T11:35:34;16.00;;;7.20;;
74707;SDS011;63360;50.104;8.074;2023-03-01T11:38:12;18.17;;;7.53;;
74707;SDS011;63360;50.104;8.074;2023-03-01T11:40:47;17.02;;;7.25;;
74707;SDS011;63360;50.104;8.074;2023-03-01T11:43:35;17.20;;;7.28;;
74707;SDS011;63360;50.104;8.074;2023-03-01T11:55:51;17.90;;;7.32;;
74707;SDS011;63360;50.104;8.074;2023-03-01T12:01:09;13.13;;;5.82;;
74707;SDS011;63360;50.104;8.074;2023-03-01T12:06:25;14.47;;;6.10;;
74707;SDS011;63360;50.104;8.074;2023-03-01T12:12:11;17.35;;;6.78;;
74707;SDS011;63360;50.104;8.074;2023-03-01T12:15:01;17.42;;;6.90;;
74707;SDS011;63360;50.104;8.074;2023-03-01T12:17:40;15.77;;;6.50;;
74707;SDS011;63360;50.104;8.074;2023-03-01T12:20:17;17.00;;;6.80;;
74707;SDS011;63360;50.104;8.074;2023-03-01T12:23:20;14.00;;;6.80;;
74707;SDS011;63360;50.104;8.074;2023-03-01T12:33:57;14.07;;;5.93;;
74707;SDS011;63360;50.104;8.074;2023-03-01T12:39:33;13.23;;;6.00;;
74707;SDS011;63360;50.104;8.074;2023-03-01T12:42:12;13.32;;;5.95;;
74707;SDS011;63360;50.104;8.074;2023-03-01T12:50:37;11.48;;;5.00;;
74707;SDS011;63360;50.104;8.074;2023-03-01T12:53:29;11.77;;;5.80;;
74707;SDS011;63360;50.104;8.074;2023-03-01T12:56:01;11.98;;;5.20;;
74707;SDS011;63360;50.104;8.074;2023-03-01T12:58:45;12.65;;;5.13;;
74707;SDS011;63360;50.104;8.074;2023-03-01T13:04:13;11.13;;;4.97;;
74707;SDS011;63360;50.104;8.074;2023-03-01T13:06:45;15.13;;;5.25;;
74707;SDS011;63360;50.104;8.074;2023-03-01T13:15:31;12.10;;;4.73;;
74707;SDS011;63360;50.104;8.074;2023-03-01T13:18:00;17.08;;;7.35;;
74707;SDS011;63360;50.104;8.074;2023-03-01T13:20:29;27.48;;;11.32;;
74707;SDS011;63360;50.104;8.074;2023-03-01T13:23:12;13.05;;;5.80;;
74707;SDS011;63360;50.104;8.074;2023-03-01T13:31:00;12.25;;;6.07;;
74707;SDS011;63360;50.104;8.074;2023-03-01T13:35:57;14.18;;;5.38;;
74707;SDS011;63360;50.104;8.074;2023-03-01T13:41:09;16.93;;;5.83;;
74707;SDS011;63360;50.104;8.074;2023-03-01T13:43:36;12.52;;;5.38;;
74707;SDS011;63360;50.104;8.074;2023-03-01T13:48:50;11.02;;;5.38;;
74707;SDS011;63360;50.104;8.074;2023-03-01T13:51:21;11.45;;;5.10;;
74707;SDS011;63360;50.104;8.074;2023-03-01T13:53:51;23.93;;;10.33;;
74707;SDS011;63360;50.104;8.074;2023-03-01T13:56:27;17.25;;;7.70;;
74707;SDS011;63360;50.104;8.074;2023-03-01T13:59:01;12.77;;;5.40;;
74707;SDS011;63360;50.104;8.074;2023-03-01T14:01:32;12.18;;;5.28;;
74707;SDS011;63360;50.104;8.074;2023-03-01T14:04:02;13.82;;;5.70;;
74707;SDS011;63360;50.104;8.074;2023-03-01T14:06:30;11.47;;;5.27;;
74707;SDS011;63360;50.104;8.074;2023-03-01T14:09:10;13.50;;;5.85;;
74707;SDS011;63360;50.104;8.074;2023-03-01T14:11:49;13.27;;;5.70;;
74707;SDS011;63360;50.104;8.074;2023-03-01T14:17:42;12.70;;;5.40;;
74707;SDS011;63360;50.104;8.074;2023-03-01T14:20:17;12.37;;;5.73;;
74707;SDS011;63360;50.104;8.074;2023-03-01T14:22:51;13.20;;;5.38;;
74707;SDS011;63360;50.104;8.074;2023-03-01T14:25:21;10.93;;;4.65;;
74707;SDS011;63360;50.104;8.074;2023-03-01T14:27:52;12.85;;;5.10;;
74707;SDS011;63360;50.104;8.074;2023-03-01T14:32:57;15.83;;;6.43;;
74707;SDS011;63360;50.104;8.074;2023-03-01T14:35:29;16.50;;;5.72;;
74707;SDS011;63360;50.104;8.074;2023-03-01T14:37:58;11.93;;;5.57;;
74707;SDS011;63360;50.104;8.074;2023-03-01T14:42:53;11.60;;;5.38;;
74707;SDS011;63360;50.104;8.074;2023-03-01T14:45:23;14.67;;;6.27;;
74707;SDS011;63360;50.104;8.074;2023-03-01T14:47:52;14.00;;;5.93;;
74707;SDS011;63360;50.104;8.074;2023-03-01T14:52:57;16.02;;;5.97;;
74707;SDS011;63360;50.104;8.074;2023-03-01T14:55:27;14.40;;;6.30;;
74707;SDS011;63360;50.104;8.074;2023-03-01T14:57:57;16.07;;;6.90;;
74707;SDS011;63360;50.104;8.074;2023-03-01T15:00:27;13.35;;;6.57;;
74707;SDS011;63360;50.104;8.074;2023-03-01T15:02:56;11.30;;;5.78;;
74707;SDS011;63360;50.104;8.074;2023-03-01T15:05:32;12.57;;;6.13;;
74707;SDS011;63360;50.104;8.074;2023-03-01T15:08:00;14.18;;;6.40;;
74707;SDS011;63360;50.104;8.074;2023-03-01T15:10:32;12.47;;;6.13;;
74707;SDS011;63360;50.104;8.074;2023-03-01T15:13:11;13.23;;;5.63;;
74707;SDS011;63360;50.104;8.074;2023-03-01T15:15:47;13.02;;;6.10;;
74707;SDS011;63360;50.104;8.074;2023-03-01T15:20:42;14.68;;;5.78;;
74707;SDS011;63360;50.104;8.074;2023-03-01T15:23:47;14.23;;;6.00;;
74707;SDS011;63360;50.104;8.074;2023-03-01T15:26:03;14.57;;;6.00;;
74707;SDS011;63360;50.104;8.074;2023-03-01T15:28:30;12.45;;;5.63;;
74707;SDS011;63360;50.104;8.074;2023-03-01T15:33:44;12.70;;;5.63;;
74707;SDS011;63360;50.104;8.074;2023-03-01T15:36:30;10.53;;;5.20;;
74707;SDS011;63360;50.104;8.074;2023-03-01T15:39:02;14.10;;;5.72;;
74707;SDS011;63360;50.104;8.074;2023-03-01T15:41:31;14.77;;;5.22;;
74707;SDS011;63360;50.104;8.074;2023-03-01T15:43:59;12.40;;;5.60;;
74707;SDS011;63360;50.104;8.074;2023-03-01T15:46:39;12.88;;;5.97;;
74707;SDS011;63360;50.104;8.074;2023-03-01T15:51:57;14.25;;;5.63;;
74707;SDS011;63360;50.104;8.074;2023-03-01T15:54:25;11.30;;;5.40;;
74707;SDS011;63360;50.104;8.074;2023-03-01T15:56:53;11.25;;;5.15;;
74707;SDS011;63360;50.104;8.074;2023-03-01T15:59:20;11.60;;;4.90;;
74707;SDS011;63360;50.104;8.074;2023-03-01T16:01:48;12.43;;;5.37;;
74707;SDS011;63360;50.104;8.074;2023-03-01T16:04:16;11.23;;;5.30;;
74707;SDS011;63360;50.104;8.074;2023-03-01T16:06:52;13.20;;;5.40;;
74707;SDS011;63360;50.104;8.074;2023-03-01T16:09:25;12.35;;;5.30;;
74707;SDS011;63360;50.104;8.074;2023-03-01T16:11:52;15.90;;;5.80;;
74707;SDS011;63360;50.104;8.074;2023-03-01T16:14:19;12.43;;;5.60;;
74707;SDS011;63360;50.104;8.074;2023-03-01T16:16:46;14.00;;;5.72;;
74707;SDS011;63360;50.104;8.074;2023-03-01T16:19:16;13.65;;;6.70;;
74707;SDS011;63360;50.104;8.074;2023-03-01T16:21:42;13.20;;;6.13;;
74707;SDS011;63360;50.104;8.074;2023-03-01T16:24:09;13.57;;;5.68;;
74707;SDS011;63360;50.104;8.074;2023-03-01T16:26:36;13.63;;;5.37;;
74707;SDS011;63360;50.104;8.074;2023-03-01T16:29:03;12.75;;;5.57;;
74707;SDS011;63360;50.104;8.074;2023-03-01T16:31:31;13.63;;;6.07;;
74707;SDS011;63360;50.104;8.074;2023-03-01T16:33:58;11.98;;;5.50;;
74707;SDS011;63360;50.104;8.074;2023-03-01T16:36:26;11.82;;;5.22;;
74707;SDS011;63360;50.104;8.074;2023-03-01T16:38:55;13.30;;;5.23;;
74707;SDS011;63360;50.104;8.074;2023-03-01T16:41:24;15.40;;;5.93;;
74707;SDS011;63360;50.104;8.074;2023-03-01T16:43:50;16.13;;;5.80;;
74707;SDS011;63360;50.104;8.074;2023-03-01T16:46:24;13.68;;;5.40;;
74707;SDS011;63360;50.104;8.074;2023-03-01T16:48:54;14.13;;;5.05;;
74707;SDS011;63360;50.104;8.074;2023-03-01T16:51:21;11.90;;;5.03;;
74707;SDS011;63360;50.104;8.074;2023-03-01T16:53:49;11.55;;;5.07;;